createdAt,value
2023-04-18T00:02:04.628Z,8.44
2023-04-18T00:04:34.152Z,8.41
2023-04-18T00:07:02.370Z,8.40
2023-04-18T00:09:30.683Z,8.39
2023-04-18T00:11:58.729Z,8.38
2023-04-18T00:14:29.009Z,8.38
2023-04-18T00:16:57.433Z,8.38
2023-04-18T00:19:25.519Z,8.39
2023-04-18T00:22:13.942Z,8.39
2023-04-18T00:24:41.963Z,8.41
2023-04-18T00:27:10.010Z,8.42
2023-04-18T00:29:38.067Z,8.43
2023-04-18T00:32:06.216Z,8.45
2023-04-18T00:34:34.625Z,8.46
2023-04-18T00:37:02.503Z,8.46
2023-04-18T00:39:30.429Z,8.46
2023-04-18T00:41:58.679Z,8.47
2023-04-18T00:44:26.680Z,8.47
2023-04-18T00:46:54.599Z,8.47
2023-04-18T00:49:24.097Z,8.46
2023-04-18T00:51:52.155Z,8.45
2023-04-18T00:54:20.522Z,8.43
2023-04-18T00:56:49.001Z,8.43
2023-04-18T00:59:17.050Z,8.44
2023-04-18T01:01:45.282Z,8.44
2023-04-18T01:04:13.971Z,8.45
2023-04-18T01:06:44.227Z,8.45
2023-04-18T01:09:14.077Z,8.46
2023-04-18T01:11:42.779Z,8.46
2023-04-18T01:14:11.022Z,8.45
2023-04-18T01:16:39.294Z,8.43
2023-04-18T01:19:07.381Z,8.42
2023-04-18T01:21:37.357Z,8.41
2023-04-18T01:24:12.081Z,8.39
2023-04-18T01:26:44.931Z,8.36
2023-04-18T01:29:12.941Z,8.35
2023-04-18T01:31:41.538Z,8.34
2023-04-18T01:34:10.795Z,8.33
2023-04-18T01:36:39.145Z,8.31
2023-04-18T01:39:07.318Z,8.30
2023-04-18T01:41:35.596Z,8.29
2023-04-18T01:44:04.068Z,8.28
2023-04-18T01:46:32.077Z,8.26
2023-04-18T01:49:02.711Z,8.23
2023-04-18T01:51:31.429Z,8.21
2023-04-18T01:53:59.387Z,8.18
2023-04-18T01:56:27.414Z,8.14
2023-04-18T01:58:55.411Z,8.11
2023-04-18T02:01:24.219Z,8.06
2023-04-18T02:03:52.525Z,8.03
2023-04-18T02:06:20.743Z,7.99
2023-04-18T02:08:49.340Z,7.95
2023-04-18T02:11:17.363Z,7.91
2023-04-18T02:13:45.296Z,7.85
2023-04-18T02:16:13.903Z,7.79
2023-04-18T02:18:44.481Z,7.72
2023-04-18T02:21:15.019Z,7.65
2023-04-18T02:23:42.985Z,7.60
2023-04-18T02:26:11.059Z,7.55
2023-04-18T02:28:39.250Z,7.53
2023-04-18T02:31:07.818Z,7.50
2023-04-18T02:33:35.782Z,7.51
2023-04-18T02:36:04.163Z,7.53
2023-04-18T02:38:32.378Z,7.53
2023-04-18T02:41:00.283Z,7.54
2023-04-18T02:43:28.324Z,7.57
2023-04-18T02:45:56.507Z,7.59
2023-04-18T02:48:24.588Z,7.63
2023-04-18T02:50:52.813Z,7.67
2023-04-18T02:53:24.003Z,7.70
2023-04-18T02:55:54.631Z,7.71
2023-04-18T02:58:25.541Z,7.74
2023-04-18T03:01:19.487Z,7.73
2023-04-18T03:03:55.940Z,7.75
2023-04-18T03:06:34.420Z,7.78
2023-04-18T03:09:03.745Z,7.80
2023-04-18T03:11:32.970Z,7.81
2023-04-18T03:14:00.963Z,7.78
2023-04-18T03:16:34.236Z,7.74
2023-04-18T03:19:03.497Z,7.74
2023-04-18T03:21:32.582Z,7.73
2023-04-18T03:24:01.055Z,7.72
2023-04-18T03:26:29.067Z,7.73
2023-04-18T03:28:57.386Z,7.73
2023-04-18T03:31:26.406Z,7.73
2023-04-18T03:33:54.413Z,7.73
2023-04-18T03:36:25.506Z,7.73
2023-04-18T03:38:55.111Z,7.73
2023-04-18T03:41:23.908Z,7.71
2023-04-18T03:43:51.960Z,7.70
2023-04-18T03:46:22.140Z,7.67
2023-04-18T03:48:51.990Z,7.66
2023-04-18T03:51:20.006Z,7.63
2023-04-18T03:53:47.972Z,7.61
2023-04-18T03:56:18.093Z,7.58
2023-04-18T03:58:51.311Z,7.55
2023-04-18T04:01:19.905Z,7.52
2023-04-18T04:03:48.020Z,7.50
2023-04-18T04:06:17.860Z,7.47
2023-04-18T04:08:45.858Z,7.45
2023-04-18T04:11:14.306Z,7.44
2023-04-18T04:13:42.792Z,7.45
2023-04-18T04:16:11.448Z,7.44
2023-04-18T04:18:39.545Z,7.44
2023-04-18T04:21:08.174Z,7.45
2023-04-18T04:23:46.647Z,7.45
2023-04-18T04:26:23.570Z,7.44
2023-04-18T04:29:02.324Z,7.41
2023-04-18T04:31:31.881Z,7.40
2023-04-18T04:34:00.581Z,7.41
2023-04-18T04:36:28.538Z,7.41
2023-04-18T04:38:57.486Z,7.45
2023-04-18T04:41:32.605Z,7.51
2023-04-18T04:44:01.933Z,7.57
2023-04-18T04:46:33.914Z,7.64
2023-04-18T04:49:03.832Z,7.71
2023-04-18T04:51:32.726Z,7.78
2023-04-18T04:54:01.882Z,7.84
2023-04-18T04:56:30.241Z,7.90
2023-04-18T04:58:58.560Z,7.97
2023-04-18T05:01:33.277Z,8.03
2023-04-18T05:04:01.500Z,8.09
2023-04-18T05:06:29.654Z,8.15
2023-04-18T05:08:59.651Z,8.21
2023-04-18T05:11:27.809Z,8.28
2023-04-18T05:13:55.739Z,8.36
2023-04-18T05:16:23.801Z,8.44
2023-04-18T05:18:51.925Z,8.49
2023-04-18T05:21:19.890Z,8.54
2023-04-18T05:23:47.871Z,8.62
2023-04-18T05:26:16.242Z,8.71
2023-04-18T05:29:04.086Z,8.80
2023-04-18T05:31:32.367Z,8.92
2023-04-18T05:34:00.730Z,9.02
2023-04-18T05:36:28.801Z,9.07
2023-04-18T05:38:56.819Z,9.08
2023-04-18T05:41:24.864Z,9.10
2023-04-18T05:44:16.814Z,9.12
2023-04-18T05:46:40.821Z,9.14
2023-04-18T05:49:08.956Z,9.15
2023-04-18T05:51:36.978Z,9.20
2023-04-18T05:54:05.033Z,9.25
2023-04-18T05:56:33.054Z,9.28
2023-04-18T05:59:01.019Z,9.31
2023-04-18T06:01:29.086Z,9.38
2023-04-18T06:03:57.379Z,9.47
2023-04-18T06:06:26.242Z,9.51
2023-04-18T06:08:54.684Z,9.53
2023-04-18T06:11:22.839Z,9.58
2023-04-18T06:13:50.835Z,9.65
2023-04-18T06:16:18.927Z,9.73
2023-04-18T06:18:46.956Z,9.85
2023-04-18T06:21:14.948Z,9.94
2023-04-18T06:23:42.958Z,9.97
2023-04-18T06:26:11.464Z,9.97
2023-04-18T06:28:39.661Z,10.00
2023-04-18T06:31:08.694Z,10.11
2023-04-18T06:33:37.894Z,10.22
2023-04-18T06:36:07.285Z,10.34
2023-04-18T06:38:35.167Z,10.43
2023-04-18T06:41:03.198Z,10.53
2023-04-18T06:43:31.105Z,10.63
2023-04-18T06:45:59.507Z,10.70
2023-04-18T06:48:27.627Z,10.80
2023-04-18T06:50:55.564Z,10.91
2023-04-18T06:53:23.643Z,11.04
2023-04-18T06:55:51.717Z,11.12
2023-04-18T06:58:19.673Z,11.19
2023-04-18T07:00:51.868Z,11.23
2023-04-18T07:03:20.401Z,11.22
2023-04-18T07:05:50.413Z,11.26
2023-04-18T07:08:18.401Z,11.29
2023-04-18T07:10:46.377Z,11.38
2023-04-18T07:13:14.246Z,11.42
2023-04-18T07:15:42.235Z,11.46
2023-04-18T07:18:10.292Z,11.42
2023-04-18T07:20:38.226Z,11.49
2023-04-18T07:23:06.604Z,11.64
2023-04-18T07:25:34.633Z,11.72
2023-04-18T07:28:02.720Z,11.76
2023-04-18T07:30:30.766Z,11.83
2023-04-18T07:32:58.723Z,11.82
2023-04-18T07:35:26.979Z,11.86
2023-04-18T07:37:54.964Z,11.97
2023-04-18T07:40:22.898Z,12.00
2023-04-18T07:42:51.021Z,12.01
2023-04-18T07:45:19.230Z,12.10
2023-04-18T07:47:47.276Z,12.20
2023-04-18T07:50:15.293Z,12.25
2023-04-18T07:52:43.283Z,12.20
2023-04-18T07:55:11.288Z,12.27
2023-04-18T07:57:39.237Z,12.45
2023-04-18T08:00:07.937Z,12.60
2023-04-18T08:02:41.760Z,12.70
2023-04-18T08:05:10.569Z,12.77
2023-04-18T08:07:38.837Z,12.85
2023-04-18T08:10:07.454Z,12.94
2023-04-18T08:12:36.647Z,13.05
2023-04-18T08:15:04.960Z,13.15
2023-04-18T08:17:33.254Z,13.26
2023-04-18T08:20:06.899Z,13.38
2023-04-18T08:22:35.925Z,13.46
2023-04-18T08:25:07.697Z,13.55
2023-04-18T08:27:35.842Z,13.61
2023-04-18T08:30:04.900Z,13.70
2023-04-18T08:32:33.208Z,13.77
2023-04-18T08:35:01.320Z,13.79
2023-04-18T08:37:30.358Z,13.82
2023-04-18T08:39:58.341Z,13.91
2023-04-18T08:42:47.368Z,14.08
2023-04-18T08:45:15.555Z,14.21
2023-04-18T08:48:03.584Z,14.30
2023-04-18T08:50:32.368Z,14.36
2023-04-18T08:53:03.793Z,14.42
2023-04-18T08:55:33.735Z,14.49
2023-04-18T08:58:03.252Z,14.56
2023-04-18T09:00:31.160Z,14.60
2023-04-18T09:02:59.434Z,14.73
2023-04-18T09:06:13.694Z,14.83
2023-04-18T09:08:43.890Z,14.85
2023-04-18T09:11:26.200Z,14.88
2023-04-18T09:13:56.596Z,14.89
2023-04-18T09:16:25.284Z,15.01
2023-04-18T09:19:18.795Z,15.10
2023-04-18T09:21:57.050Z,15.09
2023-04-18T09:24:27.033Z,15.08
2023-04-18T09:27:15.464Z,15.20
2023-04-18T09:30:01.365Z,15.30
2023-04-18T09:32:30.830Z,15.42
2023-04-18T09:35:03.900Z,15.55
2023-04-18T09:37:32.689Z,15.68
2023-04-18T09:40:00.843Z,15.64
2023-04-18T09:42:36.168Z,15.55
2023-04-18T09:45:07.075Z,15.66
2023-04-18T09:47:36.349Z,15.75
2023-04-18T09:50:06.945Z,15.79
2023-04-18T09:52:42.164Z,15.67
2023-04-18T09:55:16.238Z,15.68
2023-04-18T09:57:48.947Z,15.80
2023-04-18T10:00:26.535Z,15.70
2023-04-18T10:02:59.694Z,15.67
2023-04-18T10:05:32.344Z,15.64
2023-04-18T10:08:01.162Z,15.62
2023-04-18T10:10:29.696Z,15.59
2023-04-18T10:12:59.682Z,15.62
2023-04-18T10:15:29.681Z,15.77
2023-04-18T10:18:05.049Z,15.88
2023-04-18T10:20:35.652Z,15.98
2023-04-18T10:23:41.457Z,16.03
2023-04-18T10:26:11.002Z,16.14
2023-04-18T10:28:54.966Z,16.28
2023-04-18T10:31:28.118Z,16.45
2023-04-18T10:34:05.163Z,16.52
2023-04-18T10:36:34.068Z,16.54
2023-04-18T10:39:21.972Z,16.61
2023-04-18T10:41:51.633Z,16.72
2023-04-18T10:44:22.906Z,16.75
2023-04-18T10:46:51.345Z,16.90
2023-04-18T10:49:30.320Z,17.13
2023-04-18T10:52:01.986Z,17.33
2023-04-18T10:54:38.156Z,17.24
2023-04-18T10:57:09.054Z,17.23
2023-04-18T10:59:43.283Z,17.31
2023-04-18T11:02:26.535Z,17.40
2023-04-18T11:05:06.690Z,17.57
2023-04-18T11:07:48.783Z,17.57
2023-04-18T11:10:21.088Z,17.38
2023-04-18T11:12:50.064Z,17.34
2023-04-18T11:15:22.908Z,17.29
2023-04-18T11:18:02.359Z,17.36
2023-04-18T11:20:46.191Z,17.49
2023-04-18T11:23:20.656Z,17.68
2023-04-18T11:25:54.592Z,17.77
2023-04-18T11:28:26.390Z,17.72
2023-04-18T11:30:59.303Z,17.90
2023-04-18T11:33:30.020Z,18.08
2023-04-18T11:35:59.716Z,18.23
2023-04-18T11:38:31.502Z,18.43
2023-04-18T11:41:02.974Z,18.54
2023-04-18T11:43:30.942Z,18.47
2023-04-18T11:46:00.031Z,18.43
2023-04-18T11:48:37.258Z,18.30
2023-04-18T11:51:07.239Z,18.21
2023-04-18T11:53:37.680Z,18.29
2023-04-18T11:56:06.418Z,18.50
2023-04-18T11:58:35.572Z,18.58
2023-04-18T12:01:17.917Z,18.68
2023-04-18T12:04:07.799Z,18.86
2023-04-18T12:06:49.022Z,18.86
2023-04-18T12:09:17.946Z,18.84
2023-04-18T12:11:58.512Z,18.72
2023-04-18T12:14:27.150Z,18.43
2023-04-18T12:16:55.659Z,18.35
2023-04-18T12:19:28.371Z,18.38
2023-04-18T12:22:01.003Z,18.33
2023-04-18T12:24:29.980Z,18.43
2023-04-18T12:26:59.100Z,18.58
2023-04-18T12:29:28.593Z,18.71
2023-04-18T12:31:56.918Z,18.77
2023-04-18T12:34:25.197Z,18.80
2023-04-18T12:36:53.961Z,18.87
2023-04-18T12:39:21.979Z,18.87
2023-04-18T12:41:50.155Z,18.87
2023-04-18T12:44:18.332Z,18.71
2023-04-18T12:46:46.499Z,18.72
2023-04-18T12:49:14.911Z,18.82
2023-04-18T12:51:43.674Z,18.80
2023-04-18T12:54:11.816Z,18.75
2023-04-18T12:56:39.915Z,18.62
2023-04-18T12:59:07.929Z,18.66
2023-04-18T13:01:35.848Z,18.72
2023-04-18T13:04:11.808Z,18.50
2023-04-18T13:06:40.845Z,18.28
2023-04-18T13:09:09.460Z,18.35
2023-04-18T13:11:37.498Z,18.55
2023-04-18T13:14:05.564Z,18.62
2023-04-18T13:16:33.630Z,18.71
2023-04-18T13:19:01.692Z,18.76
2023-04-18T13:21:29.735Z,18.72
2023-04-18T13:23:57.800Z,18.78
2023-04-18T13:26:25.870Z,18.88
2023-04-18T13:28:53.962Z,18.73
2023-04-18T13:31:22.198Z,18.70
2023-04-18T13:33:50.298Z,18.71
2023-04-18T13:36:18.368Z,18.58
2023-04-18T13:38:47.034Z,18.51
2023-04-18T13:41:15.091Z,18.64
2023-04-18T13:43:43.182Z,18.75
2023-04-18T13:46:11.947Z,18.68
2023-04-18T13:48:40.114Z,18.52
2023-04-18T13:51:08.247Z,18.42
2023-04-18T13:53:36.206Z,18.32
2023-04-18T13:56:04.464Z,18.18
2023-04-18T13:58:32.952Z,18.04
2023-04-18T14:01:01.900Z,18.09
2023-04-18T14:03:30.891Z,18.14
2023-04-18T14:05:59.500Z,18.20
2023-04-18T14:08:27.573Z,18.32
2023-04-18T14:10:55.534Z,18.46
2023-04-18T14:13:23.596Z,18.51
2023-04-18T14:15:52.876Z,18.51
2023-04-18T14:18:21.975Z,18.56
2023-04-18T14:20:50.762Z,18.55
2023-04-18T14:23:18.801Z,18.39
2023-04-18T14:25:46.919Z,18.20
2023-04-18T14:28:15.830Z,18.09
2023-04-18T14:30:44.552Z,18.06
2023-04-18T14:33:12.696Z,17.97
2023-04-18T14:35:41.157Z,17.92
2023-04-18T14:38:09.464Z,17.86
2023-04-18T14:40:37.596Z,17.80
2023-04-18T14:43:05.577Z,17.67
2023-04-18T14:45:34.124Z,17.60
2023-04-18T14:48:02.501Z,17.53
2023-04-18T14:50:31.528Z,17.49
2023-04-18T14:52:59.586Z,17.42
2023-04-18T14:55:27.619Z,17.32
2023-04-18T14:57:55.570Z,17.22
2023-04-18T15:00:23.521Z,17.25
2023-04-18T15:02:51.792Z,17.31
2023-04-18T15:05:23.868Z,17.33
2023-04-18T15:07:52.237Z,17.36
2023-04-18T15:10:22.495Z,17.38
2023-04-18T15:12:51.361Z,17.41
2023-04-18T15:15:40.039Z,17.52
2023-04-18T15:18:08.658Z,17.53
2023-04-18T15:20:37.335Z,17.45
2023-04-18T15:23:05.543Z,17.36
2023-04-18T15:25:35.159Z,17.26
2023-04-18T15:28:03.323Z,17.15
2023-04-18T15:30:31.347Z,17.05
2023-04-18T15:32:59.586Z,16.96
2023-04-18T15:35:27.651Z,16.92
2023-04-18T15:37:56.635Z,16.88
2023-04-18T15:40:24.632Z,16.80
2023-04-18T15:42:54.794Z,16.65
2023-04-18T15:45:22.900Z,16.43
2023-04-18T15:47:51.649Z,16.18
2023-04-18T15:50:19.831Z,15.99
2023-04-18T15:52:47.929Z,15.73
2023-04-18T15:55:16.099Z,15.55
2023-04-18T15:57:44.052Z,15.50
2023-04-18T16:00:16.387Z,15.48
2023-04-18T16:02:45.280Z,15.47
2023-04-18T16:05:14.168Z,15.47
2023-04-18T16:07:42.484Z,15.43
2023-04-18T16:10:11.266Z,15.36
2023-04-18T16:12:40.308Z,15.29
2023-04-18T16:15:09.791Z,15.18
2023-04-18T16:17:38.136Z,15.06
2023-04-18T16:20:08.644Z,14.94
2023-04-18T16:22:37.821Z,14.87
2023-04-18T16:25:06.299Z,14.79
2023-04-18T16:27:34.355Z,14.69
2023-04-18T16:30:03.440Z,14.58
2023-04-18T16:32:31.437Z,14.48
2023-04-18T16:34:59.456Z,14.38
2023-04-18T16:37:27.526Z,14.28
2023-04-18T16:39:55.493Z,14.19
2023-04-18T16:42:23.578Z,14.12
2023-04-18T16:44:52.815Z,14.06
2023-04-18T16:47:20.972Z,13.97
2023-04-18T16:49:48.940Z,13.88
2023-04-18T16:52:17.930Z,13.79
2023-04-18T16:54:45.986Z,13.72
2023-04-18T16:57:14.657Z,13.64
2023-04-18T16:59:42.752Z,13.56
2023-04-18T17:02:10.747Z,13.48
2023-04-18T17:04:39.851Z,13.44
2023-04-18T17:07:08.087Z,13.39
2023-04-18T17:09:36.140Z,13.37
2023-04-18T17:12:04.174Z,13.35
2023-04-18T17:14:32.257Z,13.30
2023-04-18T17:17:00.217Z,13.24
2023-04-18T17:19:28.183Z,13.20
2023-04-18T17:21:56.151Z,13.19
2023-04-18T17:24:24.232Z,13.15
2023-04-18T17:26:52.184Z,13.10
2023-04-18T17:29:21.088Z,13.05
2023-04-18T17:31:49.118Z,12.98
2023-04-18T17:34:17.092Z,12.92
2023-04-18T17:36:45.030Z,12.85
2023-04-18T17:39:13.363Z,12.80
2023-04-18T17:41:41.631Z,12.78
2023-04-18T17:44:10.538Z,12.79
2023-04-18T17:46:39.130Z,12.76
2023-04-18T17:49:07.208Z,12.70
2023-04-18T17:51:35.167Z,12.64
2023-04-18T17:54:03.142Z,12.62
2023-04-18T17:56:31.580Z,12.62
2023-04-18T17:58:59.602Z,12.61
2023-04-18T18:01:30.445Z,12.57
2023-04-18T18:03:58.922Z,12.54
2023-04-18T18:06:30.507Z,12.53
2023-04-18T18:08:58.519Z,12.49
2023-04-18T18:11:27.912Z,12.45
2023-04-18T18:13:57.576Z,12.41
2023-04-18T18:16:26.060Z,12.37
2023-04-18T18:18:54.279Z,12.34
2023-04-18T18:21:22.204Z,12.32
2023-04-18T18:23:50.137Z,12.29
2023-04-18T18:26:18.271Z,12.27
2023-04-18T18:28:46.216Z,12.26
2023-04-18T18:31:14.228Z,12.24
2023-04-18T18:33:42.253Z,12.22
2023-04-18T18:36:10.220Z,12.19
2023-04-18T18:38:38.216Z,12.17
2023-04-18T18:41:06.268Z,12.17
2023-04-18T18:43:34.376Z,12.15
2023-04-18T18:46:02.417Z,12.14
2023-04-18T18:48:30.536Z,12.10
2023-04-18T18:50:58.472Z,12.08
2023-04-18T18:53:26.343Z,12.07
2023-04-18T18:55:54.266Z,12.07
2023-04-18T18:58:23.403Z,12.06
2023-04-18T19:00:52.173Z,12.05
2023-04-18T19:03:21.323Z,12.03
2023-04-18T19:05:49.456Z,12.02
2023-04-18T19:08:37.398Z,12.00
2023-04-18T19:11:05.533Z,11.98
2023-04-18T19:13:33.460Z,11.95
2023-04-18T19:16:01.414Z,11.95
2023-04-18T19:18:29.373Z,11.95
2023-04-18T19:20:57.257Z,11.94
2023-04-18T19:23:25.444Z,11.93
2023-04-18T19:25:53.428Z,11.92
2023-04-18T19:28:22.673Z,11.91
2023-04-18T19:30:51.014Z,11.90
2023-04-18T19:33:20.642Z,11.89
2023-04-18T19:35:48.532Z,11.87
2023-04-18T19:38:16.624Z,11.87
2023-04-18T19:40:45.332Z,11.87
2023-04-18T19:43:13.348Z,11.87
2023-04-18T19:45:41.363Z,11.86
2023-04-18T19:48:09.312Z,11.85
2023-04-18T19:50:40.479Z,11.83
2023-04-18T19:53:09.056Z,11.82
2023-04-18T19:55:38.350Z,11.81
2023-04-18T19:58:06.327Z,11.81
2023-04-18T20:00:34.336Z,11.82
2023-04-18T20:03:02.448Z,11.80
2023-04-18T20:05:31.238Z,11.74
2023-04-18T20:07:59.204Z,11.69
2023-04-18T20:10:27.659Z,11.62
2023-04-18T20:12:55.711Z,11.57
2023-04-18T20:15:23.630Z,11.49
2023-04-18T20:17:51.559Z,11.42
2023-04-18T20:20:19.495Z,11.38
2023-04-18T20:22:47.835Z,11.34
2023-04-18T20:25:15.862Z,11.30
2023-04-18T20:27:43.744Z,11.27
2023-04-18T20:30:11.971Z,11.26
2023-04-18T20:32:39.921Z,11.24
2023-04-18T20:35:08.624Z,11.20
2023-04-18T20:37:36.890Z,11.15
2023-04-18T20:40:07.908Z,11.10
2023-04-18T20:42:36.774Z,11.06
2023-04-18T20:45:06.159Z,11.03
2023-04-18T20:47:34.828Z,11.00
2023-04-18T20:50:03.412Z,10.97
2023-04-18T20:52:31.283Z,10.93
2023-04-18T20:54:59.256Z,10.90
2023-04-18T20:57:27.808Z,10.88
2023-04-18T20:59:58.670Z,10.86
2023-04-18T21:02:26.686Z,10.84
2023-04-18T21:04:54.911Z,10.83
2023-04-18T21:07:22.801Z,10.83
2023-04-18T21:09:50.797Z,10.81
2023-04-18T21:12:18.789Z,10.79
2023-04-18T21:14:48.075Z,10.76
2023-04-18T21:17:17.585Z,10.73
2023-04-18T21:19:46.641Z,10.67
2023-04-18T21:22:15.958Z,10.64
2023-04-18T21:24:43.988Z,10.63
2023-04-18T21:27:12.123Z,10.60
2023-04-18T21:29:40.920Z,10.54
2023-04-18T21:32:08.873Z,10.48
2023-04-18T21:34:36.846Z,10.44
2023-04-18T21:37:04.844Z,10.38
2023-04-18T21:39:32.754Z,10.34
2023-04-18T21:42:01.910Z,10.28
2023-04-18T21:44:30.249Z,10.20
2023-04-18T21:46:58.182Z,10.15
2023-04-18T21:49:26.123Z,10.11
2023-04-18T21:51:55.023Z,10.06
2023-04-18T21:54:22.978Z,10.03
2023-04-18T21:56:50.855Z,9.99
2023-04-18T21:59:18.856Z,9.95
2023-04-18T22:01:46.869Z,9.92
2023-04-18T22:04:16.099Z,9.90
2023-04-18T22:06:44.410Z,9.88
2023-04-18T22:09:12.850Z,9.85
2023-04-18T22:11:40.873Z,9.84
2023-04-18T22:14:09.975Z,9.81
2023-04-18T22:16:38.344Z,9.78
2023-04-18T22:19:07.126Z,9.76
2023-04-18T22:21:35.082Z,9.75
2023-04-18T22:24:03.324Z,9.73
2023-04-18T22:26:31.258Z,9.71
2023-04-18T22:28:59.275Z,9.68
2023-04-18T22:31:27.284Z,9.65
2023-04-18T22:33:55.317Z,9.61
2023-04-18T22:36:23.301Z,9.59
2023-04-18T22:38:51.208Z,9.57
2023-04-18T22:41:19.018Z,9.55
2023-04-18T22:43:46.948Z,9.54
2023-04-18T22:46:14.989Z,9.53
2023-04-18T22:48:44.947Z,9.51
2023-04-18T22:51:14.350Z,9.49
2023-04-18T22:53:42.239Z,9.46
2023-04-18T22:56:10.427Z,9.44
2023-04-18T22:58:38.311Z,9.41
2023-04-18T23:01:06.307Z,9.39
2023-04-18T23:03:34.831Z,9.37
2023-04-18T23:06:02.888Z,9.34
2023-04-18T23:08:31.091Z,9.33
2023-04-18T23:10:59.129Z,9.32
2023-04-18T23:13:27.103Z,9.31
2023-04-18T23:15:55.060Z,9.31
2023-04-18T23:18:23.000Z,9.31
2023-04-18T23:20:50.881Z,9.32
2023-04-18T23:23:18.901Z,9.34
2023-04-18T23:25:46.875Z,9.33
2023-04-18T23:28:14.924Z,9.33
2023-04-18T23:30:42.945Z,9.34
2023-04-18T23:33:10.965Z,9.34
2023-04-18T23:35:39.281Z,9.34
2023-04-18T23:38:07.286Z,9.34
2023-04-18T23:40:35.704Z,9.34
2023-04-18T23:43:03.748Z,9.32
2023-04-18T23:45:31.647Z,9.31
2023-04-18T23:47:59.586Z,9.30
2023-04-18T23:50:27.536Z,9.29
2023-04-18T23:52:55.561Z,9.28
2023-04-18T23:55:23.740Z,9.27
2023-04-18T23:57:51.744Z,9.26
